Time;durP1;ratioP1;P1;durP2;ratioP2;P2;SDS_P1;SDS_P2;PMS_P1;PMS_P2;Temp;Humidity;BMP_temperature;BMP_pressure;BME280_temperature;BME280_humidity;BME280_pressure;Samples;Min_cycle;Max_cycle;Signal;HPM_P1;HPM_P2
2021/04/25 00:01:30;;;;;;;81.38;51.83;;;17.70;67.70;;;;;;5033701;28;20032;-66
2021/04/25 00:03:56;;;;;;;86.88;53.92;;;17.70;67.60;;;;;;5033998;28;20030;-66
2021/04/25 00:06:22;;;;;;;81.40;52.92;;;17.70;67.70;;;;;;5033583;28;20024;-67
2021/04/25 00:08:47;;;;;;;84.25;54.53;;;17.70;67.50;;;;;;5033867;28;20024;-66
2021/04/25 00:11:13;;;;;;;87.25;54.75;;;17.70;65.70;;;;;;5033646;28;20029;-66
2021/04/25 00:13:39;;;;;;;83.50;52.28;;;17.70;65.60;;;;;;5033687;28;20435;-67
2021/04/25 00:16:05;;;;;;;82.55;52.55;;;17.70;65.50;;;;;;5015949;28;20026;-66
2021/04/25 00:18:34;;;;;;;84.70;50.97;;;17.70;65.60;;;;;;5033754;28;20025;-66
2021/04/25 00:20:59;;;;;;;81.10;52.08;;;17.80;65.70;;;;;;5033487;28;20021;-66
2021/04/25 00:23:25;;;;;;;76.60;47.85;;;17.80;65.70;;;;;;5033617;28;20037;-66
2021/04/25 00:25:51;;;;;;;76.47;48.38;;;17.80;65.80;;;;;;5033791;28;20517;-66
2021/04/25 00:28:17;;;;;;;78.05;48.80;;;17.80;66.40;;;;;;5033434;28;20025;-66
2021/04/25 00:30:43;;;;;;;75.72;47.97;;;17.70;66.80;;;;;;5033664;28;20026;-66
2021/04/25 00:33:09;;;;;;;76.22;46.67;;;17.70;66.80;;;;;;5033282;28;20395;-66
2021/04/25 00:35:35;;;;;;;75.75;47.70;;;17.70;67.10;;;;;;5033202;28;20124;-66
2021/04/25 00:38:01;;;;;;;71.78;47.78;;;17.70;67.20;;;;;;5033571;28;20029;-65
2021/04/25 00:40:27;;;;;;;72.35;44.03;;;17.70;67.20;;;;;;5033645;28;20021;-66
2021/04/25 00:42:53;;;;;;;69.20;46.08;;;17.70;67.40;;;;;;5033452;28;20026;-66
2021/04/25 00:45:19;;;;;;;73.00;44.75;;;17.70;67.40;;;;;;5033247;28;20479;-66
2021/04/25 00:47:48;;;;;;;75.10;45.58;;;17.70;67.50;;;;;;5035870;28;20025;-66
2021/04/25 00:50:16;;;;;;;73.28;45.40;;;17.70;67.60;;;;;;5037246;28;20017;-66
2021/04/25 00:52:43;;;;;;;71.07;46.33;;;17.70;67.70;;;;;;5037257;28;20079;-66
2021/04/25 00:55:11;;;;;;;70.80;45.35;;;17.70;67.90;;;;;;5019697;28;20032;-65
2021/04/25 00:57:37;;;;;;;71.65;43.45;;;17.70;67.70;;;;;;5037310;28;20021;-65
2021/04/25 01:00:05;;;;;;;65.70;41.88;;;17.70;68.00;;;;;;5037163;28;20471;-65
2021/04/25 01:02:32;;;;;;;66.72;41.95;;;17.70;67.90;;;;;;5037178;28;20017;-66
2021/04/25 01:04:58;;;;;;;67.35;42.53;;;17.70;68.20;;;;;;5037226;28;20071;-66
2021/04/25 01:07:23;;;;;;;67.25;43.90;;;17.70;68.10;;;;;;5037029;28;20049;-66
2021/04/25 01:09:49;;;;;;;66.93;40.35;;;17.70;68.00;;;;;;5036857;28;20061;-65
2021/04/25 01:12:15;;;;;;;62.58;41.47;;;17.60;66.50;;;;;;5036792;28;20075;-65
2021/04/25 01:14:41;;;;;;;64.50;40.45;;;17.70;66.20;;;;;;5036932;28;20033;-65
2021/04/25 01:17:06;;;;;;;68.22;42.28;;;17.70;66.50;;;;;;5036730;28;20493;-66
2021/04/25 01:19:32;;;;;;;67.75;43.40;;;17.70;66.30;;;;;;5036792;28;20109;-65
2021/04/25 01:21:58;;;;;;;67.60;40.72;;;17.70;66.20;;;;;;5019061;28;20021;-65
2021/04/25 01:24:23;;;;;;;63.78;40.53;;;17.70;66.40;;;;;;5036689;28;20029;-65
2021/04/25 01:26:49;;;;;;;55.85;39.05;;;17.80;66.40;;;;;;5036774;28;20037;-65
2021/04/25 01:29:15;;;;;;;62.78;36.85;;;17.70;66.40;;;;;;5036456;28;20124;-65
2021/04/25 01:31:41;;;;;;;60.60;37.88;;;17.70;67.20;;;;;;5036646;28;20470;-65
2021/04/25 01:34:06;;;;;;;58.05;38.00;;;17.70;67.40;;;;;;5036410;28;20040;-65
2021/04/25 01:36:33;;;;;;;63.28;39.08;;;17.70;67.50;;;;;;5036488;28;20022;-66
2021/04/25 01:38:58;;;;;;;62.75;39.38;;;17.70;67.40;;;;;;5036506;28;20096;-65
2021/04/25 01:41:24;;;;;;;62.50;37.70;;;17.60;67.40;;;;;;5036437;28;20037;-65
2021/04/25 01:43:50;;;;;;;61.17;37.40;;;17.60;67.60;;;;;;5018749;28;20033;-65
2021/04/25 01:46:16;;;;;;;57.03;36.13;;;17.60;67.70;;;;;;5036176;28;20030;-66
2021/04/25 01:48:43;;;;;;;56.97;37.70;;;17.60;67.60;;;;;;5036203;28;20545;-65
2021/04/25 01:51:09;;;;;;;52.60;35.10;;;17.60;67.60;;;;;;5036394;28;20025;-65
2021/04/25 01:53:35;;;;;;;53.80;35.22;;;17.60;67.50;;;;;;5036044;28;20475;-66
2021/04/25 01:56:02;;;;;;;55.63;35.58;;;17.60;67.60;;;;;;5035989;28;20040;-65
2021/04/25 01:58:29;;;;;;;53.22;34.55;;;17.60;67.60;;;;;;5035270;28;20032;-65
2021/04/25 02:00:54;;;;;;;51.95;34.08;;;17.60;67.80;;;;;;5035843;28;20467;-65
2021/04/25 02:03:20;;;;;;;52.42;33.85;;;17.70;67.80;;;;;;5036342;28;20100;-65
2021/04/25 02:05:46;;;;;;;52.28;31.85;;;17.60;67.70;;;;;;5036248;28;20026;-66
2021/04/25 02:08:13;;;;;;;53.20;33.72;;;17.60;67.80;;;;;;5036175;28;20038;-65
2021/04/25 02:10:40;;;;;;;49.05;33.05;;;17.60;67.70;;;;;;5036031;28;20025;-65
2021/04/25 02:13:06;;;;;;;52.97;33.75;;;17.60;67.80;;;;;;5035663;28;20052;-65
2021/04/25 02:15:32;;;;;;;55.53;34.75;;;17.60;66.70;;;;;;5035618;28;20028;-65
2021/04/25 02:17:58;;;;;;;48.28;32.80;;;17.60;66.60;;;;;;5035889;28;20028;-66
2021/04/25 02:20:24;;;;;;;50.83;33.88;;;17.70;66.60;;;;;;5035818;28;20025;-65
2021/04/25 02:22:52;;;;;;;47.60;31.60;;;17.70;66.60;;;;;;5035570;28;20156;-65
2021/04/25 02:25:18;;;;;;;47.75;30.27;;;17.70;66.60;;;;;;5035719;28;20048;-65
2021/04/25 02:27:44;;;;;;;52.00;32.80;;;17.70;66.60;;;;;;5035560;28;20108;-65
2021/04/25 02:30:14;;;;;;;44.85;28.88;;;17.70;66.50;;;;;;5035282;28;20056;-65
2021/04/25 02:32:40;;;;;;;43.10;29.10;;;17.70;66.70;;;;;;5035635;28;20032;-65
2021/04/25 02:35:08;;;;;;;47.30;31.25;;;17.70;67.50;;;;;;5035344;28;20037;-65
2021/04/25 02:37:34;;;;;;;47.15;30.50;;;17.60;67.60;;;;;;5035392;28;20068;-65
2021/04/25 02:40:00;;;;;;;44.80;29.58;;;17.60;67.50;;;;;;5035411;28;20033;-65
2021/04/25 02:42:25;;;;;;;45.95;29.90;;;17.60;67.60;;;;;;5035386;28;20052;-66
2021/04/25 02:44:51;;;;;;;45.33;30.10;;;17.60;67.50;;;;;;5035410;28;20104;-65
2021/04/25 02:47:17;;;;;;;40.20;27.90;;;17.60;67.70;;;;;;5035145;28;20033;-65
2021/04/25 02:49:42;;;;;;;47.13;30.65;;;17.50;67.70;;;;;;5035163;28;20495;-65
2021/04/25 02:52:08;;;;;;;43.17;28.92;;;17.50;67.70;;;;;;5035178;28;20365;-65
2021/04/25 02:54:34;;;;;;;43.25;29.02;;;17.50;67.60;;;;;;5034951;28;20041;-65
2021/04/25 02:57:00;;;;;;;40.45;26.75;;;17.50;67.50;;;;;;5034814;28;20037;-66
2021/04/25 02:59:25;;;;;;;43.63;28.42;;;17.60;67.70;;;;;;5034874;28;20036;-65
2021/04/25 03:01:52;;;;;;;42.95;27.50;;;17.60;67.70;;;;;;5035041;28;20018;-65
2021/04/25 03:04:18;;;;;;;42.15;27.50;;;17.60;67.50;;;;;;5034891;28;20021;-66
2021/04/25 03:06:43;;;;;;;38.95;26.48;;;17.60;67.60;;;;;;5035061;28;20033;-65
2021/04/25 03:09:09;;;;;;;38.88;27.45;;;17.60;67.60;;;;;;5034897;28;20041;-66
2021/04/25 03:11:34;;;;;;;37.78;25.67;;;17.60;67.70;;;;;;5016817;28;20037;-65
2021/04/25 03:14:00;;;;;;;37.50;25.83;;;17.60;67.60;;;;;;5034737;28;20100;-65
2021/04/25 03:16:26;;;;;;;40.05;26.50;;;17.60;67.60;;;;;;5034628;28;20475;-65
2021/04/25 03:18:51;;;;;;;37.58;24.45;;;17.50;66.40;;;;;;5035044;28;20057;-65
2021/04/25 03:21:17;;;;;;;37.70;24.98;;;17.50;66.10;;;;;;5034729;28;20403;-65
2021/04/25 03:23:43;;;;;;;41.13;25.65;;;17.60;66.30;;;;;;5034466;28;20382;-65
2021/04/25 03:26:09;;;;;;;37.90;23.65;;;17.60;66.20;;;;;;5034326;28;20028;-65
2021/04/25 03:28:35;;;;;;;35.83;24.48;;;17.60;66.30;;;;;;5034146;28;20112;-65
2021/04/25 03:31:00;;;;;;;38.22;24.67;;;17.60;66.30;;;;;;5034360;28;20475;-65
2021/04/25 03:33:26;;;;;;;37.45;24.85;;;17.60;66.40;;;;;;5034383;28;20084;-66
2021/04/25 03:35:52;;;;;;;37.63;24.05;;;17.70;66.60;;;;;;5034213;28;20463;-65
2021/04/25 03:38:18;;;;;;;34.95;23.55;;;17.60;67.30;;;;;;5034262;28;20022;-66
2021/04/25 03:40:44;;;;;;;33.50;22.90;;;17.60;67.50;;;;;;5034086;28;20091;-66
2021/04/25 03:43:10;;;;;;;34.63;23.23;;;17.50;67.70;;;;;;5034311;28;20025;-65
2021/04/25 03:45:35;;;;;;;36.38;25.30;;;17.50;67.60;;;;;;5034183;28;20033;-66
2021/04/25 03:48:01;;;;;;;36.58;24.73;;;17.50;67.10;;;;;;5034108;28;20032;-65
2021/04/25 03:50:28;;;;;;;35.88;23.33;;;17.50;67.50;;;;;;5034116;28;20025;-66
2021/04/25 03:52:53;;;;;;;38.85;24.33;;;17.50;67.60;;;;;;5034053;28;20037;-65
2021/04/25 03:55:22;;;;;;;34.08;22.48;;;17.50;67.80;;;;;;5033703;28;20033;-65
2021/04/25 03:57:51;;;;;;;35.85;23.75;;;17.50;67.60;;;;;;5033919;28;20025;-66
2021/04/25 04:00:19;;;;;;;32.22;22.48;;;17.50;67.70;;;;;;5033716;28;20024;-66
2021/04/25 04:02:45;;;;;;;33.78;23.17;;;17.50;67.80;;;;;;5033897;28;20491;-66
2021/04/25 04:05:11;;;;;;;33.00;22.55;;;17.50;67.60;;;;;;5033929;28;20510;-66
2021/04/25 04:07:37;;;;;;;29.67;21.63;;;17.50;67.60;;;;;;5033844;28;20379;-66
2021/04/25 04:10:04;;;;;;;29.67;21.35;;;17.50;67.70;;;;;;5015970;28;20022;-66
2021/04/25 04:12:30;;;;;;;35.70;23.17;;;17.50;67.70;;;;;;5033722;28;20061;-66
2021/04/25 04:14:56;;;;;;;31.45;21.10;;;17.50;67.80;;;;;;5033555;28;20036;-66
2021/04/25 04:17:22;;;;;;;33.28;21.65;;;17.50;67.70;;;;;;5033695;28;20025;-66
2021/04/25 04:19:47;;;;;;;32.35;21.48;;;17.50;67.70;;;;;;5033756;28;20027;-66
2021/04/25 04:22:13;;;;;;;28.90;20.42;;;17.50;66.90;;;;;;5032998;28;20024;-66
2021/04/25 04:24:39;;;;;;;31.88;20.90;;;17.50;66.80;;;;;;5033496;28;20021;-66
2021/04/25 04:27:05;;;;;;;33.70;22.63;;;17.50;66.50;;;;;;5033529;28;20029;-66
2021/04/25 04:29:32;;;;;;;35.20;21.95;;;17.50;66.60;;;;;;5012495;28;20096;-65
2021/04/25 04:31:58;;;;;;;30.25;19.83;;;17.50;66.80;;;;;;5013854;28;20026;-65
2021/04/25 04:34:24;;;;;;;29.30;19.27;;;17.60;66.70;;;;;;5013765;28;20032;-67
2021/04/25 04:36:50;;;;;;;29.38;19.52;;;17.60;66.60;;;;;;5013646;28;20026;-66
2021/04/25 04:39:15;;;;;;;31.83;21.20;;;17.60;66.90;;;;;;5013657;28;20026;-66
2021/04/25 04:41:41;;;;;;;28.15;18.52;;;17.50;67.50;;;;;;5013639;28;20022;-67
2021/04/25 04:44:07;;;;;;;28.27;20.02;;;17.50;67.60;;;;;;5013831;28;20053;-66
2021/04/25 04:46:32;;;;;;;31.08;21.65;;;17.50;67.50;;;;;;5013728;28;20483;-66
2021/04/25 04:48:58;;;;;;;29.38;19.67;;;17.50;67.60;;;;;;5013492;28;20475;-66
2021/04/25 04:51:24;;;;;;;26.13;18.05;;;17.40;67.40;;;;;;5012270;28;20379;-66
2021/04/25 04:53:49;;;;;;;27.42;21.25;;;17.50;67.70;;;;;;5013422;28;20033;-66
2021/04/25 04:56:15;;;;;;;30.48;19.67;;;17.50;67.80;;;;;;5013623;28;20053;-67
2021/04/25 04:58:41;;;;;;;29.77;20.73;;;17.40;67.90;;;;;;5013540;28;20022;-67
2021/04/25 05:01:06;;;;;;;27.73;18.67;;;17.40;67.60;;;;;;5013602;28;20053;-66
2021/04/25 05:03:32;;;;;;;26.45;18.33;;;17.40;67.80;;;;;;5013671;28;20371;-67
2021/04/25 05:05:58;;;;;;;28.42;18.75;;;17.40;67.60;;;;;;5013349;28;20034;-66
2021/04/25 05:08:23;;;;;;;28.65;18.88;;;17.40;67.60;;;;;;5013978;28;20430;-67
2021/04/25 05:10:50;;;;;;;28.40;19.27;;;17.50;67.70;;;;;;5013449;28;20395;-67
2021/04/25 05:13:16;;;;;;;25.52;17.10;;;17.40;67.70;;;;;;5013372;28;20083;-66
2021/04/25 05:15:42;;;;;;;28.25;17.58;;;17.50;67.70;;;;;;5013381;28;20033;-67
2021/04/25 05:18:08;;;;;;;27.05;18.65;;;17.50;67.90;;;;;;5013419;28;20037;-67
2021/04/25 05:20:34;;;;;;;27.05;18.00;;;17.40;67.80;;;;;;5013695;28;20108;-67
2021/04/25 05:23:00;;;;;;;26.92;17.70;;;17.40;67.80;;;;;;5013394;28;20026;-66
2021/04/25 05:25:27;;;;;;;26.20;17.50;;;17.40;66.70;;;;;;5013257;28;20021;-67
2021/04/25 05:27:53;;;;;;;23.38;16.23;;;17.50;66.60;;;;;;5013181;28;20049;-66
2021/04/25 05:30:19;;;;;;;23.35;15.57;;;17.50;66.40;;;;;;5032027;28;20037;-66
2021/04/25 05:32:45;;;;;;;23.95;16.23;;;17.50;66.40;;;;;;5032821;28;20364;-66
2021/04/25 05:35:11;;;;;;;22.70;16.20;;;17.50;66.40;;;;;;5035916;28;20032;-67
2021/04/25 05:37:37;;;;;;;25.90;17.90;;;17.60;66.60;;;;;;5036374;28;20032;-66
2021/04/25 05:40:05;;;;;;;23.13;15.48;;;17.60;66.40;;;;;;5036517;28;20025;-66
2021/04/25 05:42:31;;;;;;;24.05;16.17;;;17.60;66.60;;;;;;5036291;28;20033;-67
2021/04/25 05:44:57;;;;;;;23.85;15.50;;;17.50;67.00;;;;;;5036565;28;20036;-66
2021/04/25 05:47:23;;;;;;;21.10;15.20;;;17.50;67.40;;;;;;5036378;28;20053;-66
2021/04/25 05:49:48;;;;;;;23.90;15.70;;;17.50;68.00;;;;;;5036197;28;20033;-66
2021/04/25 05:52:14;;;;;;;22.75;15.57;;;17.50;67.40;;;;;;5036240;28;20022;-66
2021/04/25 05:54:40;;;;;;;22.15;15.70;;;17.50;67.30;;;;;;5036160;28;20029;-66
2021/04/25 05:57:07;;;;;;;24.30;14.98;;;17.50;67.20;;;;;;5036224;28;20044;-66
2021/04/25 05:59:35;;;;;;;21.48;15.65;;;17.50;67.20;;;;;;5035973;28;20018;-66
2021/04/25 06:02:01;;;;;;;22.40;16.33;;;17.50;67.50;;;;;;5036142;28;20104;-66
2021/04/25 06:04:27;;;;;;;23.10;15.70;;;17.50;67.60;;;;;;5035944;28;20025;-67
2021/04/25 06:06:53;;;;;;;25.48;15.90;;;17.50;67.70;;;;;;5035817;28;20021;-67
2021/04/25 06:09:18;;;;;;;22.17;15.55;;;17.50;67.80;;;;;;5035911;28;20475;-67
2021/04/25 06:11:44;;;;;;;21.48;14.43;;;17.50;67.70;;;;;;5035791;28;20383;-67
2021/04/25 06:14:09;;;;;;;22.15;15.60;;;17.50;67.70;;;;;;5035781;28;20490;-67
2021/04/25 06:16:35;;;;;;;22.25;15.00;;;17.50;67.70;;;;;;5035899;28;20029;-67
2021/04/25 06:19:01;;;;;;;20.55;14.23;;;17.50;67.60;;;;;;5035704;28;20067;-67
2021/04/25 06:21:27;;;;;;;20.27;14.10;;;17.50;67.40;;;;;;5036143;28;20018;-67
2021/04/25 06:23:53;;;;;;;24.33;15.43;;;17.50;67.60;;;;;;5035618;28;20049;-67
2021/04/25 06:26:19;;;;;;;21.25;15.13;;;17.50;67.50;;;;;;5035613;28;20026;-66
2021/04/25 06:28:45;;;;;;;22.10;14.18;;;17.50;66.40;;;;;;5014368;28;20054;-66
2021/04/25 06:31:10;;;;;;;23.90;15.40;;;17.60;65.90;;;;;;5015888;28;20076;-66
2021/04/25 06:33:37;;;;;;;20.85;14.80;;;17.60;65.60;;;;;;5015643;28;20391;-67
2021/04/25 06:36:02;;;;;;;20.88;15.35;;;17.60;65.70;;;;;;5015454;28;20037;-67
2021/04/25 06:38:28;;;;;;;22.17;14.45;;;17.60;65.90;;;;;;5015671;28;20021;-67
2021/04/25 06:40:54;;;;;;;21.95;14.05;;;17.70;66.70;;;;;;5015442;28;20026;-67
2021/04/25 06:43:19;;;;;;;19.52;14.13;;;17.70;66.10;;;;;;5015607;28;20021;-67
2021/04/25 06:45:46;;;;;;;21.38;14.20;;;17.70;65.50;;;;;;5015013;28;20029;-67
2021/04/25 06:48:12;;;;;;;19.27;14.02;;;17.70;65.30;;;;;;5015298;28;20026;-68
2021/04/25 06:50:37;;;;;;;19.92;14.00;;;17.70;65.50;;;;;;5015404;28;20037;-67
2021/04/25 06:53:05;;;;;;;18.13;13.43;;;17.70;65.30;;;;;;5015324;28;20117;-67
2021/04/25 06:55:31;;;;;;;20.45;13.80;;;17.70;65.80;;;;;;5015309;28;20029;-67
2021/04/25 06:57:56;;;;;;;20.55;14.63;;;17.70;65.80;;;;;;5015398;28;20026;-66
2021/04/25 07:00:24;;;;;;;19.67;13.77;;;17.60;65.80;;;;;;5013875;28;20030;-67
2021/04/25 07:02:54;;;;;;;21.48;14.02;;;17.60;65.80;;;;;;5015291;28;20084;-67
2021/04/25 07:05:20;;;;;;;19.80;13.32;;;17.60;66.00;;;;;;5015279;28;20041;-67
2021/04/25 07:07:45;;;;;;;16.88;13.05;;;17.60;66.10;;;;;;5015205;28;20026;-67
2021/04/25 07:10:11;;;;;;;20.50;14.63;;;17.60;66.60;;;;;;5015114;28;20028;-67
2021/04/25 07:12:37;;;;;;;19.88;14.48;;;17.60;66.70;;;;;;5014878;28;20105;-67
2021/04/25 07:15:05;;;;;;;20.60;13.20;;;17.60;66.40;;;;;;5014814;28;20033;-68
2021/04/25 07:17:31;;;;;;;17.65;12.93;;;17.60;66.70;;;;;;5015011;28;20105;-67
2021/04/25 07:19:57;;;;;;;21.05;15.38;;;17.60;66.30;;;;;;5014857;28;20105;-67
2021/04/25 07:22:22;;;;;;;17.95;12.85;;;17.60;66.40;;;;;;5014847;28;20437;-67
2021/04/25 07:24:49;;;;;;;18.60;13.38;;;17.60;66.40;;;;;;5014637;28;20467;-67
2021/04/25 07:27:16;;;;;;;19.35;12.65;;;17.60;66.40;;;;;;5014848;28;20022;-68
2021/04/25 07:29:41;;;;;;;23.63;14.70;;;17.60;66.90;;;;;;5028188;28;20076;-64
2021/04/25 07:32:07;;;;;;;23.98;13.60;;;17.60;66.40;;;;;;5034342;28;20475;-65
2021/04/25 07:34:33;;;;;;;19.52;13.27;;;17.70;65.50;;;;;;5034388;28;20026;-62
2021/04/25 07:36:59;;;;;;;21.40;14.20;;;17.80;65.00;;;;;;5034380;28;20360;-66
2021/04/25 07:39:25;;;;;;;25.27;13.93;;;17.90;65.00;;;;;;5034309;28;20032;-61
2021/04/25 07:41:50;;;;;;;27.05;15.02;;;18.00;65.10;;;;;;5033981;28;20029;-66
2021/04/25 07:44:17;;;;;;;23.20;14.02;;;18.10;64.60;;;;;;5026037;28;20105;-66
2021/04/25 07:46:43;;;;;;;21.88;13.98;;;18.10;65.00;;;;;;5022860;28;20021;-70
2021/04/25 07:49:09;;;;;;;19.00;13.65;;;18.10;65.40;;;;;;5023903;28;21453;-62
2021/04/25 07:51:34;;;;;;;31.33;14.45;;;18.10;65.50;;;;;;5021922;28;20102;-64
2021/04/25 07:54:00;;;;;;;23.85;14.15;;;18.10;65.00;;;;;;5005262;28;20410;-65
2021/04/25 07:56:26;;;;;;;22.63;13.85;;;18.20;64.90;;;;;;5017782;28;20068;-63
2021/04/25 07:58:52;;;;;;;25.17;14.05;;;18.20;64.50;;;;;;5013353;28;20026;-65
2021/04/25 08:01:18;;;;;;;19.80;12.93;;;18.20;64.80;;;;;;5013280;28;20120;-65
2021/04/25 08:03:44;;;;;;;23.65;13.23;;;18.10;65.10;;;;;;5013359;28;20018;-65
2021/04/25 08:06:10;;;;;;;21.30;13.18;;;18.10;65.40;;;;;;5013283;28;20036;-65
2021/04/25 08:08:35;;;;;;;20.33;13.77;;;18.00;65.20;;;;;;5013118;28;20105;-65
2021/04/25 08:11:01;;;;;;;20.77;13.23;;;18.00;65.20;;;;;;5013153;28;20053;-65
2021/04/25 08:13:27;;;;;;;23.65;14.52;;;18.00;65.60;;;;;;5013157;28;20052;-65
2021/04/25 08:15:53;;;;;;;23.55;14.43;;;18.00;65.30;;;;;;5012898;28;20034;-65
2021/04/25 08:18:19;;;;;;;21.45;13.30;;;18.00;65.40;;;;;;5013193;28;20014;-65
2021/04/25 08:20:44;;;;;;;20.27;12.55;;;18.00;65.50;;;;;;5013094;28;20018;-65
2021/04/25 08:23:10;;;;;;;22.33;14.65;;;18.00;65.40;;;;;;5012989;28;20033;-72
2021/04/25 08:25:36;;;;;;;21.45;13.85;;;18.00;65.20;;;;;;5013003;28;20475;-65
2021/04/25 08:28:03;;;;;;;24.88;15.18;;;18.00;65.20;;;;;;5012935;28;20054;-66
2021/04/25 08:30:28;;;;;;;28.95;13.10;;;18.00;65.30;;;;;;5012883;28;20026;-65
2021/04/25 08:32:54;;;;;;;24.45;13.90;;;18.00;65.30;;;;;;5012990;28;20030;-66
2021/04/25 08:35:20;;;;;;;22.60;13.38;;;18.00;65.10;;;;;;5012834;28;20042;-66
2021/04/25 08:37:46;;;;;;;20.48;13.68;;;18.10;65.20;;;;;;5012716;28;20018;-63
2021/04/25 08:40:13;;;;;;;24.80;13.30;;;18.20;64.90;;;;;;5012829;28;20090;-64
2021/04/25 08:42:39;;;;;;;27.27;13.00;;;18.20;64.70;;;;;;5027376;28;20097;-64
2021/04/25 08:45:06;;;;;;;24.15;12.70;;;18.20;64.70;;;;;;5032685;28;20029;-63
2021/04/25 08:47:42;;;;;;;26.55;13.82;;;18.20;64.50;;;;;;5032493;28;20053;-64
2021/04/25 08:50:09;;;;;;;25.60;13.38;;;18.30;64.30;;;;;;5032072;28;20108;-67
2021/04/25 08:52:35;;;;;;;25.30;13.18;;;18.20;64.50;;;;;;5032384;28;20052;-66
2021/04/25 08:55:01;;;;;;;26.40;14.40;;;18.20;64.10;;;;;;5032118;28;20025;-61
2021/04/25 08:57:27;;;;;;;61.85;42.15;;;18.30;64.10;;;;;;5023053;28;20018;-60
2021/04/25 08:59:52;;;;;;;132.63;80.07;;;18.30;63.10;;;;;;5021662;28;20352;-60
2021/04/25 09:02:18;;;;;;;170.60;96.35;;;18.30;62.80;;;;;;5022977;28;20021;-61
2021/04/25 09:04:44;;;;;;;202.82;118.55;;;18.30;62.60;;;;;;5021124;28;20022;-60
2021/04/25 09:07:16;;;;;;;226.95;132.85;;;18.30;61.70;;;;;;5022083;28;20036;-60
2021/04/25 09:09:45;;;;;;;256.42;153.43;;;18.40;61.10;;;;;;5026821;28;20021;-61
2021/04/25 09:12:13;;;;;;;254.82;150.15;;;18.40;61.20;;;;;;5025105;28;20037;-61
2021/04/25 09:14:40;;;;;;;220.55;128.13;;;18.40;61.60;;;;;;5030800;28;20021;-61
2021/04/25 09:17:06;;;;;;;188.13;115.18;;;18.40;60.60;;;;;;5036674;28;20060;-60
2021/04/25 09:19:55;;;;;;;177.98;109.68;;;18.40;60.20;;;;;;5036055;28;20022;-61
2021/04/25 09:22:23;;;;;;;147.05;85.57;;;18.30;60.90;;;;;;5036557;28;20502;-61
2021/04/25 09:24:49;;;;;;;123.57;80.18;;;18.30;59.70;;;;;;5036551;28;20029;-60
2021/04/25 09:27:26;;;;;;;112.70;66.93;;;18.30;59.70;;;;;;5035974;28;20471;-60
2021/04/25 09:29:53;;;;;;;107.53;68.00;;;18.30;59.50;;;;;;5036215;28;20041;-60
2021/04/25 09:32:25;;;;;;;107.00;67.07;;;18.30;60.00;;;;;;5036237;28;20507;-61
2021/04/25 09:35:16;;;;;;;118.97;64.78;;;18.30;59.90;;;;;;5036533;28;20040;-62
2021/04/25 09:37:44;;;;;;;114.75;59.67;;;18.40;59.00;;;;;;5036441;28;20394;-60
2021/04/25 09:40:17;;;;;;;120.78;56.17;;;18.40;60.20;;;;;;5035980;28;20029;-60
2021/04/25 09:42:59;;;;;;;106.25;50.83;;;18.40;60.00;;;;;;5036491;28;20430;-60
2021/04/25 09:45:28;;;;;;;100.82;50.67;;;18.40;60.00;;;;;;5036194;28;20033;-59
2021/04/25 09:47:54;;;;;;;103.65;48.25;;;18.50;60.30;;;;;;5035693;28;20056;-60
2021/04/25 09:50:22;;;;;;;96.22;44.88;;;18.50;59.50;;;;;;5036175;28;20382;-60
2021/04/25 09:52:50;;;;;;;92.95;40.35;;;18.50;59.90;;;;;;5035944;28;20425;-59
2021/04/25 09:55:17;;;;;;;80.32;38.90;;;18.40;59.80;;;;;;5035408;28;20483;-60
2021/04/25 09:57:43;;;;;;;85.32;39.78;;;18.40;60.10;;;;;;5035919;28;20536;-60
2021/04/25 10:00:10;;;;;;;70.05;34.08;;;18.40;60.80;;;;;;5036091;28;20022;-60
2021/04/25 10:03:18;;;;;;;62.83;31.02;;;18.40;60.90;;;;;;5035395;28;20032;-61
2021/04/25 10:06:07;;;;;;;49.83;25.27;;;18.50;60.00;;;;;;4975332;28;20157;-59
2021/04/25 10:08:35;;;;;;;36.22;19.90;;;18.40;59.30;;;;;;4975024;28;20038;-59
2021/04/25 10:11:03;;;;;;;29.42;17.42;;;18.40;57.90;;;;;;5014898;28;20030;-60
2021/04/25 10:13:30;;;;;;;30.50;18.10;;;18.60;57.10;;;;;;5035550;28;20048;-61
2021/04/25 10:15:57;;;;;;;26.85;16.98;;;18.70;56.20;;;;;;5035549;28;20487;-60
2021/04/25 10:18:23;;;;;;;25.45;15.35;;;18.80;55.90;;;;;;5035110;28;20032;-61
2021/04/25 10:20:57;;;;;;;24.30;15.60;;;19.10;54.80;;;;;;5034839;28;20026;-60
2021/04/25 10:23:23;;;;;;;27.30;14.75;;;19.10;54.90;;;;;;5035653;28;20029;-60
2021/04/25 10:25:50;;;;;;;22.08;12.90;;;19.20;54.50;;;;;;5034935;28;20032;-61
2021/04/25 10:28:18;;;;;;;26.05;14.25;;;19.00;55.40;;;;;;5035195;28;20522;-61
2021/04/25 10:30:46;;;;;;;20.75;12.98;;;18.90;54.70;;;;;;5035449;28;20437;-60
2021/04/25 10:33:13;;;;;;;23.33;13.75;;;18.80;54.20;;;;;;5034813;28;20112;-60
2021/04/25 10:35:54;;;;;;;27.05;13.52;;;18.80;55.00;;;;;;5035218;28;20486;-61
2021/04/25 10:38:38;;;;;;;24.52;13.20;;;18.60;54.50;;;;;;5035514;28;20037;-61
2021/04/25 10:41:25;;;;;;;24.05;13.63;;;18.60;55.00;;;;;;5034704;28;20021;-61
2021/04/25 10:44:07;;;;;;;21.63;13.95;;;18.80;53.00;;;;;;5035309;28;20048;-60
2021/04/25 10:46:54;;;;;;;20.90;12.85;;;19.00;53.10;;;;;;5034892;28;20483;-63
2021/04/25 10:49:32;;;;;;;24.88;13.18;;;18.80;54.00;;;;;;5034992;28;20112;-60
2021/04/25 10:52:21;;;;;;;27.27;13.02;;;18.70;55.40;;;;;;5035006;28;20032;-60
2021/04/25 10:55:15;;;;;;;22.83;11.68;;;19.00;53.00;;;;;;5034397;28;20021;-59
2021/04/25 10:57:56;;;;;;;49.20;31.70;;;19.20;52.30;;;;;;5034861;28;20032;-60
2021/04/25 11:00:34;;;;;;;69.47;39.25;;;19.10;52.90;;;;;;5034767;28;20518;-59
2021/04/25 11:03:23;;;;;;;64.07;40.40;;;18.90;53.90;;;;;;5034270;28;20053;-60
2021/04/25 11:05:51;;;;;;;53.28;29.58;;;18.70;54.90;;;;;;5026632;28;20083;-60
2021/04/25 11:08:19;;;;;;;45.72;24.92;;;18.50;53.10;;;;;;5034578;28;20025;-60
2021/04/25 11:10:48;;;;;;;66.03;38.65;;;18.60;52.30;;;;;;5034008;28;20501;-61
2021/04/25 11:13:32;;;;;;;47.35;29.58;;;18.60;53.40;;;;;;5034469;28;20070;-60
2021/04/25 11:16:01;;;;;;;45.78;26.20;;;18.80;52.10;;;;;;5034426;28;20025;-61
2021/04/25 11:18:49;;;;;;;27.60;17.33;;;18.80;52.70;;;;;;5017344;28;20013;-60
2021/04/25 11:21:27;;;;;;;27.17;16.75;;;18.80;51.20;;;;;;5034369;28;20022;-61
2021/04/25 11:23:54;;;;;;;26.05;14.68;;;18.80;53.20;;;;;;5033844;28;20095;-59
2021/04/25 11:26:38;;;;;;;20.23;11.93;;;18.70;53.00;;;;;;5034277;28;20025;-60
2021/04/25 11:29:19;;;;;;;21.08;11.15;;;18.60;52.10;;;;;;5033912;28;20459;-60
2021/04/25 11:31:45;;;;;;;19.48;10.05;;;18.90;51.10;;;;;;5032984;28;20026;-60
2021/04/25 11:34:23;;;;;;;15.27;8.75;;;19.20;49.50;;;;;;5034218;28;20020;-62
2021/04/25 11:36:49;;;;;;;19.33;11.13;;;19.10;50.10;;;;;;5033857;28;20077;-62
2021/04/25 11:39:18;;;;;;;118.32;70.47;;;19.00;50.70;;;;;;5034084;28;20028;-63
2021/04/25 11:41:44;;;;;;;105.82;63.95;;;18.90;51.90;;;;;;5034059;28;20033;-70
2021/04/25 11:44:11;;;;;;;133.48;76.60;;;19.00;51.90;;;;;;5034102;28;20052;-62
2021/04/25 11:46:37;;;;;;;157.57;91.72;;;19.10;52.50;;;;;;5034206;28;20033;-61
2021/04/25 11:49:04;;;;;;;130.25;72.80;;;19.10;52.40;;;;;;5016382;28;20461;-74
2021/04/25 11:51:31;;;;;;;101.40;57.83;;;19.20;53.00;;;;;;5034171;28;20021;-63
2021/04/25 11:53:57;;;;;;;79.57;48.97;;;19.30;52.60;;;;;;5033838;28;20029;-62
2021/04/25 11:56:28;;;;;;;60.35;36.15;;;19.20;52.20;;;;;;5033892;28;20034;-65
2021/04/25 11:59:07;;;;;;;56.00;33.90;;;19.20;52.70;;;;;;5033955;28;20014;-64
2021/04/25 12:01:34;;;;;;;58.33;31.77;;;19.20;53.10;;;;;;5033529;28;20025;-69
2021/04/25 12:03:59;;;;;;;66.80;32.42;;;19.10;52.20;;;;;;5034008;28;20021;-63
2021/04/25 12:06:25;;;;;;;39.70;23.17;;;19.30;51.80;;;;;;5033713;28;20032;-60
2021/04/25 12:08:54;;;;;;;47.42;25.08;;;19.30;51.60;;;;;;5015924;28;20053;-61
2021/04/25 12:11:25;;;;;;;85.20;50.90;;;19.20;52.00;;;;;;5033734;28;20079;-63
2021/04/25 12:13:51;;;;;;;122.78;70.97;;;19.10;52.90;;;;;;5033599;28;20033;-62
2021/04/25 12:16:19;;;;;;;270.15;150.88;;;19.00;53.40;;;;;;5033360;28;20038;-60
2021/04/25 12:18:45;;;;;;;172.35;100.47;;;19.00;52.40;;;;;;5033579;28;20356;-61
2021/04/25 12:21:23;;;;;;;221.57;119.43;;;19.30;51.20;;;;;;5033755;28;20027;-60
2021/04/25 12:23:52;;;;;;;198.45;113.22;;;19.30;51.00;;;;;;5033488;28;20029;-59
2021/04/25 12:26:21;;;;;;;277.23;153.85;;;19.30;51.10;;;;;;5033608;28;20083;-58
2021/04/25 12:28:56;;;;;;;335.83;191.25;;;19.30;51.50;;;;;;5033210;28;20443;-60